createdAt,value
2022-11-07T00:00:51.122Z,10.9
2022-11-07T00:01:55.142Z,10.9
2022-11-07T00:02:59.049Z,10.9
2022-11-07T00:04:02.871Z,10.9
2022-11-07T00:05:06.042Z,10.9
2022-11-07T00:06:09.344Z,10.9
2022-11-07T00:07:12.334Z,10.9
2022-11-07T00:08:15.254Z,10.9
2022-11-07T00:09:17.756Z,10.9
2022-11-07T00:10:20.387Z,10.9
2022-11-07T00:11:23.782Z,10.9
2022-11-07T00:12:26.987Z,10.9
2022-11-07T00:13:30.705Z,10.9
2022-11-07T00:14:34.175Z,10.9
2022-11-07T00:15:37.323Z,10.9
2022-11-07T00:16:40.425Z,10.9
2022-11-07T00:17:43.564Z,10.9
2022-11-07T00:18:46.365Z,10.9
2022-11-07T00:19:49.881Z,10.9
2022-11-07T00:20:53.664Z,10.9
2022-11-07T00:21:56.850Z,10.9
2022-11-07T00:22:59.917Z,10.9
2022-11-07T00:24:02.745Z,10.9
2022-11-07T00:25:05.842Z,10.9
2022-11-07T00:26:08.562Z,10.9
2022-11-07T00:27:12.294Z,10.9
2022-11-07T00:28:15.657Z,11
2022-11-07T00:29:18.364Z,11
2022-11-07T00:30:21.506Z,11
2022-11-07T00:31:24.215Z,11
2022-11-07T00:32:27.213Z,11
2022-11-07T00:33:31.374Z,11
2022-11-07T00:34:34.913Z,11
2022-11-07T00:35:38.288Z,11
2022-11-07T00:36:41.355Z,11
2022-11-07T00:37:44.169Z,11
2022-11-07T00:38:47.612Z,11
2022-11-07T00:39:50.741Z,11.1
2022-11-07T00:40:53.729Z,11.1
2022-11-07T00:41:57.168Z,11.1
2022-11-07T00:43:00.109Z,11.1
2022-11-07T00:44:03.750Z,11.1
2022-11-07T00:45:06.373Z,11.1
2022-11-07T00:46:09.353Z,11.1
2022-11-07T00:47:12.496Z,11.2
2022-11-07T00:48:15.226Z,11.1
2022-11-07T00:49:19.065Z,11.2
2022-11-07T00:50:21.521Z,11.2
2022-11-07T00:51:24.981Z,11.2
2022-11-07T00:52:27.779Z,11.2
2022-11-07T00:53:30.843Z,11.2
2022-11-07T00:54:33.737Z,11.2
2022-11-07T00:55:36.523Z,11.2
2022-11-07T00:56:39.508Z,11.2
2022-11-07T00:57:42.386Z,11.2
2022-11-07T00:58:45.663Z,11.2
2022-11-07T00:59:48.786Z,11.2
2022-11-07T01:00:51.523Z,11.2
2022-11-07T01:01:54.559Z,11.2
2022-11-07T01:02:58.469Z,11.2
2022-11-07T01:04:01.596Z,11.3
2022-11-07T01:05:04.798Z,11.3
2022-11-07T01:06:07.526Z,11.3
2022-11-07T01:07:10.426Z,11.3
2022-11-07T01:08:13.165Z,11.3
2022-11-07T01:09:16.256Z,11.3
2022-11-07T01:10:19.130Z,11.3
2022-11-07T01:11:22.216Z,11.3
2022-11-07T01:12:24.666Z,11.3
2022-11-07T01:13:27.750Z,11.3
2022-11-07T01:14:30.818Z,11.3
2022-11-07T01:15:33.845Z,11.3
2022-11-07T01:16:36.649Z,11.4
2022-11-07T01:17:40.028Z,11.4
2022-11-07T01:18:43.404Z,11.4
2022-11-07T01:19:45.834Z,11.4
2022-11-07T01:20:49.224Z,11.4
2022-11-07T01:21:52.682Z,11.4
2022-11-07T01:22:56.144Z,11.4
2022-11-07T01:23:59.212Z,11.4
2022-11-07T01:25:01.966Z,11.5
2022-11-07T01:26:04.758Z,11.5
2022-11-07T01:27:08.212Z,11.4
2022-11-07T01:28:10.941Z,11.5
2022-11-07T01:29:14.048Z,11.4
2022-11-07T01:30:17.204Z,11.5
2022-11-07T01:31:20.440Z,11.5
2022-11-07T01:32:23.828Z,11.5
2022-11-07T01:33:26.622Z,11.5
2022-11-07T01:34:29.621Z,11.4
2022-11-07T01:35:32.345Z,11.4
2022-11-07T01:36:35.018Z,11.4
2022-11-07T01:37:38.473Z,11.4
2022-11-07T01:38:41.913Z,11.4
2022-11-07T01:39:45.648Z,11.4
2022-11-07T01:40:48.357Z,11.5
2022-11-07T01:41:51.282Z,11.4
2022-11-07T01:42:54.104Z,11.5
2022-11-07T01:43:57.323Z,11.4
2022-11-07T01:45:01.059Z,11.5
2022-11-07T01:46:04.045Z,11.5
2022-11-07T01:47:07.637Z,11.5
2022-11-07T01:48:10.634Z,11.5
2022-11-07T01:49:13.073Z,11.5
2022-11-07T01:50:15.521Z,11.5
2022-11-07T01:51:18.316Z,11.5
2022-11-07T01:52:21.436Z,11.5
2022-11-07T01:53:24.504Z,11.5
2022-11-07T01:54:28.107Z,11.5
2022-11-07T01:55:31.101Z,11.5
2022-11-07T01:56:33.889Z,11.5
2022-11-07T01:57:36.451Z,11.6
2022-11-07T01:58:39.915Z,11.6
2022-11-07T01:59:42.439Z,11.6
2022-11-07T02:00:45.532Z,11.6
2022-11-07T02:01:48.949Z,11.6
2022-11-07T02:02:53.164Z,11.6
2022-11-07T02:03:56.562Z,11.6
2022-11-07T02:04:59.188Z,11.6
2022-11-07T02:06:01.981Z,11.6
2022-11-07T02:07:05.341Z,11.6
2022-11-07T02:08:09.336Z,11.6
2022-11-07T02:09:11.845Z,11.6
2022-11-07T02:10:15.010Z,11.5
2022-11-07T02:11:18.712Z,11.5
2022-11-07T02:12:21.514Z,11.6
2022-11-07T02:13:24.589Z,11.6
2022-11-07T02:14:28.085Z,11.5
2022-11-07T02:15:30.606Z,11.5
2022-11-07T02:16:34.025Z,11.5
2022-11-07T02:17:37.224Z,11.6
2022-11-07T02:18:40.578Z,11.6
2022-11-07T02:19:43.740Z,11.6
2022-11-07T02:20:46.825Z,11.6
2022-11-07T02:21:49.545Z,11.5
2022-11-07T02:22:52.626Z,11.6
2022-11-07T02:23:56.105Z,11.6
2022-11-07T02:24:58.995Z,11.6
2022-11-07T02:26:02.191Z,11.6
2022-11-07T02:27:04.980Z,11.6
2022-11-07T02:28:07.799Z,11.6
2022-11-07T02:29:11.265Z,11.6
2022-11-07T02:30:13.815Z,11.6
2022-11-07T02:31:16.340Z,11.6
2022-11-07T02:32:18.856Z,11.6
2022-11-07T02:33:22.285Z,11.6
2022-11-07T02:34:25.129Z,11.6
2022-11-07T02:35:27.980Z,11.6
2022-11-07T02:36:30.931Z,11.6
2022-11-07T02:37:33.166Z,11.6
2022-11-07T02:38:36.064Z,11.6
2022-11-07T02:39:39.757Z,11.6
2022-11-07T02:40:43.258Z,11.6
2022-11-07T02:41:46.644Z,11.6
2022-11-07T02:42:50.011Z,11.6
2022-11-07T02:43:53.553Z,11.7
2022-11-07T02:44:56.072Z,11.7
2022-11-07T02:45:59.266Z,11.7
2022-11-07T02:47:02.763Z,11.7
2022-11-07T02:48:05.551Z,11.6
2022-11-07T02:49:07.804Z,11.6
2022-11-07T02:50:10.640Z,11.6
2022-11-07T02:51:13.805Z,11.7
2022-11-07T02:52:17.101Z,11.6
2022-11-07T02:53:19.899Z,11.6
2022-11-07T02:54:22.704Z,11.7
2022-11-07T02:55:26.335Z,11.7
2022-11-07T02:56:28.718Z,11.7
2022-11-07T02:57:32.598Z,11.7
2022-11-07T02:58:35.479Z,11.7
2022-11-07T02:59:38.627Z,11.7
2022-11-07T03:00:41.621Z,11.7
2022-11-07T03:01:45.528Z,11.7
2022-11-07T03:02:49.214Z,11.7
2022-11-07T03:03:52.392Z,11.7
2022-11-07T03:04:54.990Z,11.7
2022-11-07T03:05:57.271Z,11.7
2022-11-07T03:07:00.059Z,11.7
2022-11-07T03:08:04.134Z,11.7
2022-11-07T03:09:07.871Z,11.7
2022-11-07T03:10:10.189Z,11.7
2022-11-07T03:11:14.273Z,11.7
2022-11-07T03:12:16.987Z,11.7
2022-11-07T03:13:20.223Z,11.7
2022-11-07T03:14:24.108Z,11.7
2022-11-07T03:15:27.513Z,11.7
2022-11-07T03:16:30.586Z,11.7
2022-11-07T03:17:33.326Z,11.7
2022-11-07T03:18:36.134Z,11.6
2022-11-07T03:19:38.950Z,11.7
2022-11-07T03:20:41.471Z,11.6
2022-11-07T03:21:44.895Z,11.6
2022-11-07T03:22:47.597Z,11.6
2022-11-07T03:23:51.055Z,11.6
2022-11-07T03:24:53.776Z,11.6
2022-11-07T03:25:56.592Z,11.6
2022-11-07T03:26:59.739Z,11.6
2022-11-07T03:28:02.890Z,11.6
2022-11-07T03:29:06.635Z,11.6
2022-11-07T03:30:09.735Z,11.6
2022-11-07T03:31:12.636Z,11.6
2022-11-07T03:32:15.346Z,11.6
2022-11-07T03:33:18.637Z,11.6
2022-11-07T03:34:22.287Z,11.6
2022-11-07T03:35:25.386Z,11.6
2022-11-07T03:36:28.756Z,11.6
2022-11-07T03:37:31.607Z,11.6
2022-11-07T03:38:34.947Z,11.6
2022-11-07T03:39:38.114Z,11.6
2022-11-07T03:40:41.452Z,11.6
2022-11-07T03:41:44.514Z,11.6
2022-11-07T03:42:47.959Z,11.6
2022-11-07T03:43:50.817Z,11.6
2022-11-07T03:44:54.456Z,11.6
2022-11-07T03:45:56.415Z,11.6
2022-11-07T03:46:59.247Z,11.6
2022-11-07T03:48:02.336Z,11.6
2022-11-07T03:49:05.717Z,11.6
2022-11-07T03:50:09.141Z,11.6
2022-11-07T03:51:12.012Z,11.6
2022-11-07T03:52:15.177Z,11.7
2022-11-07T03:53:26.801Z,11.6
2022-11-07T03:54:30.774Z,11.6
2022-11-07T03:55:33.879Z,11.6
2022-11-07T03:56:37.022Z,11.6
2022-11-07T03:57:39.564Z,11.7
2022-11-07T03:58:42.784Z,11.6
2022-11-07T03:59:45.675Z,11.7
2022-11-07T04:00:48.776Z,11.6
2022-11-07T04:01:52.478Z,11.7
2022-11-07T04:02:56.847Z,11.6
2022-11-07T04:04:00.343Z,11.7
2022-11-07T04:05:03.432Z,11.7
2022-11-07T04:06:06.588Z,11.7
2022-11-07T04:07:09.847Z,11.7
2022-11-07T04:08:12.194Z,11.7
2022-11-07T04:09:15.226Z,11.7
2022-11-07T04:10:18.568Z,11.7
2022-11-07T04:11:22.226Z,11.6
2022-11-07T04:12:25.021Z,11.6
2022-11-07T04:13:27.865Z,11.7
2022-11-07T04:14:31.424Z,11.7
2022-11-07T04:15:34.218Z,11.6
2022-11-07T04:16:37.581Z,11.7
2022-11-07T04:17:39.457Z,11.7
2022-11-07T04:18:43.060Z,11.7
2022-11-07T04:19:45.955Z,11.7
2022-11-07T04:20:49.129Z,11.7
2022-11-07T04:21:51.730Z,11.7
2022-11-07T04:22:54.443Z,11.7
2022-11-07T04:23:57.444Z,11.7
2022-11-07T04:25:00.971Z,11.7
2022-11-07T04:26:03.686Z,11.7
2022-11-07T04:27:06.383Z,11.7
2022-11-07T04:28:09.168Z,11.7
2022-11-07T04:29:12.000Z,11.7
2022-11-07T04:30:15.358Z,11.7
2022-11-07T04:31:18.520Z,11.7
2022-11-07T04:32:21.870Z,11.7
2022-11-07T04:33:25.227Z,11.7
2022-11-07T04:34:28.517Z,11.7
2022-11-07T04:35:31.024Z,11.7
2022-11-07T04:36:33.932Z,11.7
2022-11-07T04:37:37.101Z,11.7
2022-11-07T04:38:40.378Z,11.8
2022-11-07T04:39:42.891Z,11.8
2022-11-07T04:40:45.713Z,11.8
2022-11-07T04:41:49.156Z,11.8
2022-11-07T04:42:52.013Z,11.8
2022-11-07T04:43:54.927Z,11.8
2022-11-07T04:44:57.994Z,11.8
2022-11-07T04:46:01.108Z,11.8
2022-11-07T04:47:03.620Z,11.8
2022-11-07T04:48:06.701Z,11.8
2022-11-07T04:49:09.763Z,11.8
2022-11-07T04:50:12.956Z,11.8
2022-11-07T04:51:16.149Z,11.8
2022-11-07T04:52:19.355Z,11.8
2022-11-07T04:53:21.863Z,11.8
2022-11-07T04:54:24.301Z,11.8
2022-11-07T04:55:27.368Z,11.9
2022-11-07T04:56:35.367Z,11.8
2022-11-07T04:57:38.396Z,11.8
2022-11-07T04:58:41.106Z,11.9
2022-11-07T04:59:43.546Z,11.9
2022-11-07T05:00:46.623Z,11.9
2022-11-07T05:01:50.689Z,11.9
2022-11-07T05:02:53.714Z,11.9
2022-11-07T05:03:57.528Z,11.9
2022-11-07T05:05:00.605Z,11.9
2022-11-07T05:06:03.693Z,11.9
2022-11-07T05:07:06.584Z,11.9
2022-11-07T05:08:09.956Z,11.9
2022-11-07T05:09:12.948Z,11.9
2022-11-07T05:10:16.316Z,11.9
2022-11-07T05:11:19.026Z,11.9
2022-11-07T05:12:21.792Z,11.9
2022-11-07T05:13:24.508Z,11.9
2022-11-07T05:14:27.658Z,11.9
2022-11-07T05:15:30.461Z,12
2022-11-07T05:16:33.180Z,12
2022-11-07T05:17:36.472Z,12
2022-11-07T05:18:39.078Z,12
2022-11-07T05:19:42.586Z,12
2022-11-07T05:20:45.674Z,12
2022-11-07T05:21:48.644Z,12
2022-11-07T05:22:57.210Z,12.1
2022-11-07T05:24:00.895Z,12.1
2022-11-07T05:25:04.036Z,12.1
2022-11-07T05:26:07.163Z,12.1
2022-11-07T05:27:10.018Z,12.1
2022-11-07T05:28:12.858Z,12.1
2022-11-07T05:29:15.733Z,12.1
2022-11-07T05:30:18.809Z,12.1
2022-11-07T05:31:21.516Z,12.1
2022-11-07T05:32:24.396Z,12.1
2022-11-07T05:33:27.884Z,12.1
2022-11-07T05:34:30.883Z,12.2
2022-11-07T05:35:34.357Z,12.2
2022-11-07T05:36:36.812Z,12.2
2022-11-07T05:37:40.070Z,12.2
2022-11-07T05:38:42.880Z,12.2
2022-11-07T05:39:45.623Z,12.2
2022-11-07T05:40:57.424Z,12.2
2022-11-07T05:41:59.607Z,12.2
2022-11-07T05:43:02.125Z,12.2
2022-11-07T05:44:05.549Z,12.2
2022-11-07T05:45:08.536Z,12.2
2022-11-07T05:46:11.608Z,12.2
2022-11-07T05:47:14.732Z,12.2
2022-11-07T05:48:18.549Z,12.2
2022-11-07T05:49:21.948Z,12.2
2022-11-07T05:50:24.839Z,12.2
2022-11-07T05:51:27.668Z,12.2
2022-11-07T05:52:30.740Z,12.2
2022-11-07T05:53:34.589Z,12.3
2022-11-07T05:54:37.710Z,12.3
2022-11-07T05:55:40.178Z,12.2
2022-11-07T05:56:42.973Z,12.2
2022-11-07T05:57:45.887Z,12.2
2022-11-07T05:58:48.692Z,12.2
2022-11-07T05:59:51.610Z,12.2
2022-11-07T06:00:54.685Z,12.3
2022-11-07T06:01:58.275Z,12.3
2022-11-07T06:03:01.147Z,12.3
2022-11-07T06:04:05.288Z,12.3
2022-11-07T06:05:08.566Z,12.3
2022-11-07T06:06:11.555Z,12.3
2022-11-07T06:07:15.378Z,12.3
2022-11-07T06:08:18.829Z,12.3
2022-11-07T06:09:22.208Z,12.3
2022-11-07T06:10:25.706Z,12.3
2022-11-07T06:11:29.168Z,12.3
2022-11-07T06:12:31.515Z,12.3
2022-11-07T06:13:34.501Z,12.3
2022-11-07T06:14:37.013Z,12.3
2022-11-07T06:15:40.420Z,12.2
2022-11-07T06:16:43.421Z,12.2
2022-11-07T06:17:46.128Z,12.2
2022-11-07T06:18:48.381Z,12.2
2022-11-07T06:19:51.439Z,12.2
2022-11-07T06:20:55.374Z,12.2
2022-11-07T06:21:58.190Z,12.2
2022-11-07T06:23:01.674Z,12.2
2022-11-07T06:24:04.509Z,12.2
2022-11-07T06:25:07.296Z,12.2
2022-11-07T06:26:10.377Z,12.2
2022-11-07T06:27:13.485Z,12.2
2022-11-07T06:28:16.011Z,12.2
2022-11-07T06:29:18.735Z,12.2
2022-11-07T06:30:21.452Z,12.2
2022-11-07T06:31:24.506Z,12.1
2022-11-07T06:32:27.223Z,12.1
2022-11-07T06:33:30.371Z,12.1
2022-11-07T06:34:33.251Z,12.1
2022-11-07T06:35:35.684Z,12.1
2022-11-07T06:36:39.721Z,12.1
2022-11-07T06:37:42.527Z,12.1
2022-11-07T06:38:46.568Z,12.1
2022-11-07T06:39:49.354Z,12.1
2022-11-07T06:40:52.852Z,12.1
2022-11-07T06:41:55.797Z,12.1
2022-11-07T06:42:58.817Z,12.1
2022-11-07T06:44:01.526Z,12.1
2022-11-07T06:45:04.395Z,12.1
2022-11-07T06:46:07.212Z,12.1
2022-11-07T06:47:09.786Z,12.1
2022-11-07T06:48:12.845Z,12.1
2022-11-07T06:49:16.292Z,12.1
2022-11-07T06:50:19.091Z,12.1
2022-11-07T06:51:21.874Z,12.1
2022-11-07T06:52:25.005Z,12.1
2022-11-07T06:53:28.166Z,12.2
2022-11-07T06:54:30.990Z,12.1
2022-11-07T06:55:34.375Z,12.2
2022-11-07T06:56:37.745Z,12.2
2022-11-07T06:57:40.904Z,12.2
2022-11-07T06:58:44.309Z,12.2
2022-11-07T06:59:52.758Z,12.2
2022-11-07T07:00:56.011Z,12.2
2022-11-07T07:01:59.509Z,12.2
2022-11-07T07:03:03.959Z,12.2
2022-11-07T07:04:07.157Z,12.2
2022-11-07T07:05:09.421Z,12.2
2022-11-07T07:06:12.156Z,12.2
2022-11-07T07:07:15.352Z,12.2
2022-11-07T07:08:18.883Z,12.2
2022-11-07T07:09:21.323Z,12.2
2022-11-07T07:10:25.211Z,12.2
2022-11-07T07:11:28.646Z,12.1
2022-11-07T07:12:32.073Z,12.2
2022-11-07T07:13:35.444Z,12.2
2022-11-07T07:14:38.838Z,12.1
2022-11-07T07:15:52.217Z,12.2
2022-11-07T07:16:55.870Z,12.2
2022-11-07T07:17:58.885Z,12.2
2022-11-07T07:19:02.123Z,12.2
2022-11-07T07:20:05.142Z,12.2
2022-11-07T07:21:08.260Z,12.2
2022-11-07T07:22:11.352Z,12.2
2022-11-07T07:23:15.085Z,12.2
2022-11-07T07:24:19.082Z,12.3
2022-11-07T07:25:22.314Z,12.3
2022-11-07T07:26:26.254Z,12.3
2022-11-07T07:27:29.431Z,12.4
2022-11-07T07:28:33.263Z,12.4
2022-11-07T07:29:36.449Z,12.4
2022-11-07T07:30:39.744Z,12.4
2022-11-07T07:31:42.545Z,12.4
2022-11-07T07:32:45.998Z,12.4
2022-11-07T07:33:49.060Z,12.4
2022-11-07T07:34:52.664Z,12.5
2022-11-07T07:35:55.885Z,12.5
2022-11-07T07:36:58.889Z,12.5
2022-11-07T07:38:02.081Z,12.5
2022-11-07T07:39:04.525Z,12.5
2022-11-07T07:40:08.821Z,12.6
2022-11-07T07:41:12.476Z,12.5
2022-11-07T07:42:15.583Z,12.5
2022-11-07T07:43:19.588Z,12.6
2022-11-07T07:44:23.174Z,12.6
2022-11-07T07:45:25.965Z,12.6
2022-11-07T07:46:29.524Z,12.6
2022-11-07T07:47:32.331Z,12.6
2022-11-07T07:48:35.337Z,12.6
2022-11-07T07:49:38.336Z,12.7
2022-11-07T07:50:41.624Z,12.7
2022-11-07T07:51:44.148Z,12.7
2022-11-07T07:52:47.599Z,12.8
2022-11-07T07:53:50.970Z,12.8
2022-11-07T07:54:53.711Z,12.8
2022-11-07T07:55:57.581Z,12.9
2022-11-07T07:57:00.404Z,12.9
2022-11-07T07:58:04.097Z,12.9
2022-11-07T07:59:07.269Z,12.9
2022-11-07T08:00:10.477Z,12.9
2022-11-07T08:01:13.991Z,12.9
2022-11-07T08:02:17.434Z,12.9
2022-11-07T08:03:20.384Z,12.9
2022-11-07T08:04:23.207Z,12.9
2022-11-07T08:05:25.733Z,12.9
2022-11-07T08:06:29.070Z,13
2022-11-07T08:07:32.609Z,13
2022-11-07T08:08:39.307Z,13
2022-11-07T08:09:42.013Z,13.1
2022-11-07T08:10:45.027Z,13.1
2022-11-07T08:11:48.824Z,13.1
2022-11-07T08:12:51.988Z,13.2
2022-11-07T08:14:02.448Z,13.2
2022-11-07T08:15:05.601Z,13.3
2022-11-07T08:16:09.501Z,13.3
2022-11-07T08:17:12.574Z,13.4
2022-11-07T08:18:16.429Z,13.5
2022-11-07T08:19:18.665Z,13.5
2022-11-07T08:20:22.048Z,13.6
2022-11-07T08:21:25.149Z,13.6
2022-11-07T08:22:28.433Z,13.6
2022-11-07T08:23:30.957Z,13.6
2022-11-07T08:24:33.526Z,13.7
2022-11-07T08:25:36.405Z,13.7
2022-11-07T08:26:39.123Z,13.8
2022-11-07T08:27:42.811Z,13.8
2022-11-07T08:28:45.971Z,13.8
2022-11-07T08:29:49.315Z,13.8
2022-11-07T08:30:51.926Z,13.9
2022-11-07T08:31:55.012Z,13.9
2022-11-07T08:32:57.599Z,14
2022-11-07T08:34:00.334Z,14
2022-11-07T08:35:04.170Z,14.1
2022-11-07T08:36:06.890Z,14.1
2022-11-07T08:37:10.620Z,14.2
2022-11-07T08:38:14.131Z,14.2
2022-11-07T08:39:17.494Z,14.3
2022-11-07T08:40:20.561Z,14.3
2022-11-07T08:41:23.508Z,14.4
2022-11-07T08:42:26.300Z,14.4
2022-11-07T08:43:29.716Z,14.4
2022-11-07T08:44:33.159Z,14.5
2022-11-07T08:45:36.600Z,14.5
2022-11-07T08:46:38.843Z,14.6
2022-11-07T08:47:41.653Z,14.6
2022-11-07T08:48:44.375Z,14.6
2022-11-07T08:49:47.564Z,14.7
2022-11-07T08:50:50.724Z,14.8
2022-11-07T08:51:53.712Z,14.8
2022-11-07T08:53:03.880Z,14.8
2022-11-07T08:54:07.405Z,14.8
2022-11-07T08:55:09.723Z,14.8
2022-11-07T08:56:13.179Z,14.9
2022-11-07T08:57:15.729Z,15
2022-11-07T08:58:18.908Z,15
2022-11-07T08:59:22.999Z,15
2022-11-07T09:00:25.622Z,15.1
2022-11-07T09:01:30.119Z,15.2
2022-11-07T09:03:54.955Z,15.2
2022-11-07T09:05:02.830Z,15.2
2022-11-07T09:06:06.280Z,15.4
2022-11-07T09:07:09.628Z,15.4
2022-11-07T09:08:12.448Z,15.5
2022-11-07T09:09:17.617Z,15.6
2022-11-07T09:10:20.411Z,15.6
2022-11-07T09:11:24.121Z,15.7
2022-11-07T09:12:27.191Z,15.8
2022-11-07T09:13:30.023Z,15.8
2022-11-07T09:14:34.072Z,15.9
2022-11-07T09:15:37.296Z,15.9
2022-11-07T09:16:40.582Z,16
2022-11-07T09:17:43.759Z,16
2022-11-07T09:18:47.421Z,16.1
2022-11-07T09:19:50.508Z,16.2
2022-11-07T09:20:53.358Z,16.2
2022-11-07T09:21:56.232Z,16.3
2022-11-07T09:22:59.388Z,16.3
2022-11-07T09:24:03.135Z,16.4
2022-11-07T09:25:07.117Z,16.4
2022-11-07T09:26:10.483Z,16.5
2022-11-07T09:27:14.106Z,16.5
2022-11-07T09:28:17.091Z,16.4
2022-11-07T09:29:20.005Z,16.5
2022-11-07T09:30:23.157Z,16.5
2022-11-07T09:31:26.449Z,16.4
2022-11-07T09:32:46.561Z,16.4
2022-11-07T09:33:49.350Z,16.4
2022-11-07T09:35:05.550Z,16.4
2022-11-07T09:36:08.295Z,16.4
2022-11-07T09:37:11.372Z,16.3
2022-11-07T09:38:14.247Z,16.3
2022-11-07T09:39:17.545Z,16.3
2022-11-07T09:40:21.253Z,16.3
2022-11-07T09:41:25.564Z,16.4
2022-11-07T09:42:28.292Z,16.4
2022-11-07T09:43:30.448Z,16.4
2022-11-07T09:44:38.278Z,16.4
2022-11-07T09:45:41.421Z,16.4
2022-11-07T09:46:44.855Z,16.4
2022-11-07T09:47:48.624Z,16.5
2022-11-07T09:48:51.414Z,16.5
2022-11-07T09:49:54.505Z,16.5
2022-11-07T09:50:57.935Z,16.5
2022-11-07T09:52:01.978Z,16.5
2022-11-07T09:53:05.434Z,16.5
2022-11-07T09:54:08.674Z,16.5
2022-11-07T09:55:11.212Z,16.5
2022-11-07T09:56:13.971Z,16.5
2022-11-07T09:57:17.791Z,16.5
2022-11-07T09:58:21.514Z,16.5
2022-11-07T09:59:25.155Z,16.5
2022-11-07T10:00:28.343Z,16.5
2022-11-07T10:01:32.304Z,16.4
2022-11-07T10:02:35.402Z,16.4
2022-11-07T10:03:38.518Z,16.3
2022-11-07T10:04:41.440Z,16.2
2022-11-07T10:05:44.901Z,16.2
2022-11-07T10:06:48.278Z,16.2
2022-11-07T10:07:51.173Z,16.1
2022-11-07T10:08:53.785Z,16.1
2022-11-07T10:09:56.299Z,16.1
2022-11-07T10:10:59.386Z,16.1
2022-11-07T10:12:02.515Z,16.1
2022-11-07T10:13:06.594Z,16.1
2022-11-07T10:14:09.317Z,16
2022-11-07T10:15:12.309Z,16.1
2022-11-07T10:16:14.816Z,16.1
2022-11-07T10:17:18.113Z,16.1
2022-11-07T10:18:20.990Z,16.1
2022-11-07T10:19:24.123Z,16.1
2022-11-07T10:20:27.068Z,16
2022-11-07T10:21:39.873Z,16
2022-11-07T10:22:43.160Z,16
2022-11-07T10:23:45.472Z,16
2022-11-07T10:24:48.474Z,16
2022-11-07T10:25:51.255Z,16
2022-11-07T10:26:54.386Z,16
2022-11-07T10:27:57.988Z,15.9
2022-11-07T10:29:01.083Z,15.9
2022-11-07T10:30:04.451Z,15.9
2022-11-07T10:31:07.920Z,15.9
2022-11-07T10:32:10.791Z,15.9
2022-11-07T10:33:15.437Z,15.9
2022-11-07T10:34:20.049Z,15.9
2022-11-07T10:35:23.812Z,15.9
2022-11-07T10:36:26.905Z,15.9
2022-11-07T10:37:29.970Z,15.9
2022-11-07T10:38:32.784Z,15.8
2022-11-07T10:39:36.277Z,15.8
2022-11-07T10:40:39.715Z,15.9
2022-11-07T10:41:43.355Z,15.9
2022-11-07T10:42:46.745Z,15.9
2022-11-07T10:43:49.861Z,15.9
2022-11-07T10:44:52.987Z,15.9
2022-11-07T10:45:55.799Z,15.9
2022-11-07T10:46:59.544Z,15.9
2022-11-07T10:48:02.905Z,15.9
2022-11-07T10:49:06.599Z,15.9
2022-11-07T10:50:09.598Z,15.9
2022-11-07T10:51:12.760Z,16
2022-11-07T10:52:16.203Z,16
2022-11-07T10:53:19.294Z,16.1
2022-11-07T10:54:22.663Z,16.2
2022-11-07T10:55:25.717Z,16.2
2022-11-07T10:56:28.717Z,16.4
2022-11-07T10:57:31.702Z,16.5
2022-11-07T10:58:35.173Z,16.6
2022-11-07T10:59:38.862Z,16.8
2022-11-07T11:00:42.396Z,16.9
2022-11-07T11:01:46.750Z,17
2022-11-07T11:02:50.149Z,17
2022-11-07T11:03:52.843Z,17
2022-11-07T11:04:56.613Z,17.1
2022-11-07T11:05:59.994Z,17.1
2022-11-07T11:07:04.084Z,17.1
2022-11-07T11:08:07.158Z,17.1
2022-11-07T11:09:09.457Z,17.1
2022-11-07T11:10:12.507Z,17.2
2022-11-07T11:11:15.916Z,17.1
2022-11-07T11:12:19.063Z,17.1
2022-11-07T11:13:21.873Z,17.1
2022-11-07T11:14:24.391Z,17
2022-11-07T11:15:36.566Z,17
2022-11-07T11:16:40.244Z,16.9
2022-11-07T11:17:44.032Z,16.9
2022-11-07T11:18:46.560Z,16.8
2022-11-07T11:19:49.077Z,16.8
2022-11-07T11:20:52.949Z,16.8
2022-11-07T11:21:56.402Z,16.7
2022-11-07T11:23:00.059Z,16.7
2022-11-07T11:24:02.793Z,16.6
2022-11-07T11:25:05.602Z,16.6
2022-11-07T11:26:09.541Z,16.5
2022-11-07T11:27:12.439Z,16.5
2022-11-07T11:28:16.322Z,16.5
2022-11-07T11:29:21.956Z,16.5
2022-11-07T11:30:24.936Z,16.5
2022-11-07T11:31:28.593Z,16.4
2022-11-07T11:32:31.660Z,16.4
2022-11-07T11:33:35.122Z,16.4
2022-11-07T11:34:38.472Z,16.4
2022-11-07T11:35:43.405Z,16.4
2022-11-07T11:36:46.972Z,16.5
2022-11-07T11:37:50.112Z,16.5
2022-11-07T11:38:53.560Z,16.6
2022-11-07T11:39:56.973Z,16.6
2022-11-07T11:41:11.341Z,16.6
2022-11-07T11:42:14.771Z,16.7
2022-11-07T11:43:18.606Z,16.8
2022-11-07T11:44:22.485Z,16.8
2022-11-07T11:45:25.204Z,16.9
2022-11-07T11:46:28.667Z,17
2022-11-07T11:47:35.569Z,17.1
2022-11-07T11:48:39.300Z,17.2
2022-11-07T11:49:42.403Z,17.2
2022-11-07T11:50:45.594Z,17.3
2022-11-07T11:51:48.496Z,17.4
2022-11-07T11:52:52.799Z,17.4
2022-11-07T11:53:55.440Z,17.5
2022-11-07T11:54:59.079Z,17.4
2022-11-07T11:56:01.807Z,17.4
2022-11-07T11:57:05.161Z,17.4
2022-11-07T11:58:09.505Z,17.4
2022-11-07T11:59:12.557Z,17.3
2022-11-07T12:00:16.010Z,17.3
2022-11-07T12:01:19.212Z,17.3
2022-11-07T12:02:22.148Z,17.3
2022-11-07T12:03:25.533Z,17.2
2022-11-07T12:04:28.899Z,17.2
2022-11-07T12:05:32.246Z,17.2
2022-11-07T12:06:34.985Z,17.2
2022-11-07T12:07:38.051Z,17.1
2022-11-07T12:08:41.804Z,17.1
2022-11-07T12:09:45.617Z,17.1
2022-11-07T12:10:49.094Z,17.1
2022-11-07T12:11:51.453Z,17
2022-11-07T12:12:54.624Z,17
2022-11-07T12:13:58.683Z,16.9
2022-11-07T12:15:01.821Z,16.9
2022-11-07T12:16:04.255Z,16.9
2022-11-07T12:17:06.746Z,16.8
2022-11-07T12:18:10.723Z,16.8
2022-11-07T12:19:13.841Z,16.8
2022-11-07T12:20:17.402Z,16.7
2022-11-07T12:21:20.434Z,16.7
2022-11-07T12:22:24.062Z,16.7
2022-11-07T12:23:27.409Z,16.6
2022-11-07T12:24:30.844Z,16.6
2022-11-07T12:25:34.495Z,16.6
2022-11-07T12:26:37.667Z,16.5
2022-11-07T12:27:41.299Z,16.5
2022-11-07T12:28:45.028Z,16.5
2022-11-07T12:29:48.826Z,16.5
2022-11-07T12:30:52.342Z,16.5
2022-11-07T12:31:56.159Z,16.4
2022-11-07T12:32:58.887Z,16.4
2022-11-07T12:34:01.984Z,16.4
2022-11-07T12:35:04.762Z,16.4
2022-11-07T12:36:08.668Z,16.3
2022-11-07T12:37:11.748Z,16.3
2022-11-07T12:38:14.571Z,16.3
2022-11-07T12:39:17.435Z,16.3
2022-11-07T12:40:20.827Z,16.2
2022-11-07T12:41:24.125Z,16.2
2022-11-07T12:42:27.744Z,16.2
2022-11-07T12:43:31.262Z,16.2
2022-11-07T12:44:34.633Z,16.2
2022-11-07T12:45:38.144Z,16.2
2022-11-07T12:46:41.047Z,16.1
2022-11-07T12:47:44.111Z,16.1
2022-11-07T12:48:46.983Z,16
2022-11-07T12:49:49.615Z,16.1
2022-11-07T12:50:52.444Z,16
2022-11-07T12:51:55.509Z,16
2022-11-07T12:52:58.741Z,16
2022-11-07T12:54:01.464Z,16
2022-11-07T12:55:04.982Z,16
2022-11-07T12:56:08.446Z,16
2022-11-07T12:57:11.913Z,15.9
2022-11-07T12:58:15.647Z,15.9
2022-11-07T12:59:18.459Z,15.9
2022-11-07T13:00:30.762Z,15.9
2022-11-07T13:01:34.928Z,15.9
2022-11-07T13:02:38.762Z,15.9
2022-11-07T13:03:42.529Z,15.9
2022-11-07T13:04:45.540Z,15.8
2022-11-07T13:05:48.635Z,15.9
2022-11-07T13:06:51.192Z,15.8
2022-11-07T13:07:54.618Z,15.8
2022-11-07T13:08:57.418Z,15.8
2022-11-07T13:10:00.803Z,15.8
2022-11-07T13:11:03.865Z,15.8
2022-11-07T13:12:07.054Z,15.8
2022-11-07T13:13:09.577Z,15.7
2022-11-07T13:14:12.733Z,15.8
2022-11-07T13:15:16.089Z,15.7
2022-11-07T13:16:18.328Z,15.7
2022-11-07T13:17:21.724Z,15.8
2022-11-07T13:18:25.083Z,15.7
2022-11-07T13:19:33.826Z,15.7
2022-11-07T13:20:37.282Z,15.7
2022-11-07T13:21:39.802Z,15.7
2022-11-07T13:22:43.307Z,15.7
2022-11-07T13:23:46.456Z,15.7
2022-11-07T13:24:49.612Z,15.7
2022-11-07T13:25:52.958Z,15.7
2022-11-07T13:26:55.997Z,15.7
2022-11-07T13:27:59.447Z,15.8
2022-11-07T13:29:03.304Z,15.8
2022-11-07T13:30:06.208Z,15.8
2022-11-07T13:31:09.413Z,15.8
2022-11-07T13:32:13.245Z,15.9
2022-11-07T13:33:17.581Z,15.9
2022-11-07T13:34:21.767Z,15.9
2022-11-07T13:35:24.853Z,15.9
2022-11-07T13:36:27.757Z,15.9
2022-11-07T13:37:30.544Z,15.9
2022-11-07T13:38:33.751Z,15.9
2022-11-07T13:39:36.818Z,16
2022-11-07T13:40:39.629Z,15.9
2022-11-07T13:41:41.792Z,15.9
2022-11-07T13:42:45.228Z,15.9
2022-11-07T13:43:55.891Z,15.9
2022-11-07T13:44:59.272Z,15.9
2022-11-07T13:46:02.739Z,15.9
2022-11-07T13:47:05.924Z,15.9
2022-11-07T13:48:09.776Z,15.9
2022-11-07T13:49:13.169Z,15.9
2022-11-07T13:50:16.225Z,15.9
2022-11-07T13:51:19.181Z,15.9
2022-11-07T13:52:22.518Z,15.9
2022-11-07T13:53:25.658Z,15.9
2022-11-07T13:54:29.437Z,15.9
2022-11-07T13:55:32.439Z,15.9
2022-11-07T13:56:35.041Z,15.9
2022-11-07T13:57:38.395Z,15.9
2022-11-07T13:58:41.780Z,15.9
2022-11-07T13:59:45.083Z,15.9
2022-11-07T14:00:49.039Z,15.9
2022-11-07T14:01:53.380Z,15.8
2022-11-07T14:02:57.537Z,15.8
2022-11-07T14:04:01.134Z,15.8
2022-11-07T14:05:18.848Z,15.8
2022-11-07T14:06:22.092Z,15.8
2022-11-07T14:07:27.526Z,15.8
2022-11-07T14:08:30.985Z,15.8
2022-11-07T14:09:34.403Z,15.8